createdAt,value
2022-10-28T00:00:29.971Z,1003.0
2022-10-28T00:01:29.021Z,1003.0
2022-10-28T00:02:30.955Z,1003.1
2022-10-28T00:03:21.374Z,1003.1
2022-10-28T00:04:36.318Z,1003.1
2022-10-28T00:05:20.839Z,1003.0
2022-10-28T00:06:27.250Z,1003.0
2022-10-28T00:07:26.195Z,1003.0
2022-10-28T00:08:28.155Z,1003.0
2022-10-28T00:09:26.636Z,1003.0
2022-10-28T00:10:20.163Z,1003.0
2022-10-28T00:11:29.676Z,1003.0
2022-10-28T00:12:26.088Z,1003.0
2022-10-28T00:13:29.254Z,1002.9
2022-10-28T00:14:27.246Z,1002.9
2022-10-28T00:15:23.364Z,1002.9
2022-10-28T00:16:27.492Z,1002.9
2022-10-28T00:17:29.590Z,1003.0
2022-10-28T00:18:20.412Z,1003.0
2022-10-28T00:19:27.763Z,1003.0
2022-10-28T00:20:25.813Z,1003.0
2022-10-28T00:21:30.939Z,1003.0
2022-10-28T00:22:30.329Z,1003.0
2022-10-28T00:23:27.584Z,1003.0
2022-10-28T00:24:20.795Z,1003.0
2022-10-28T00:25:28.577Z,1003.0
2022-10-28T00:26:26.013Z,1003.0
2022-10-28T00:27:24.357Z,1003.0
2022-10-28T00:28:33.327Z,1003.0
2022-10-28T00:29:28.827Z,1002.9
2022-10-28T00:30:25.283Z,1002.9
2022-10-28T00:31:23.846Z,1002.9
2022-10-28T00:32:29.892Z,1003.0
2022-10-28T00:33:24.939Z,1003.0
2022-10-28T00:34:23.199Z,1003.0
2022-10-28T00:35:33.349Z,1003.0
2022-10-28T00:36:21.383Z,1003.0
2022-10-28T00:37:26.709Z,1003.0
2022-10-28T00:38:20.040Z,1003.0
2022-10-28T00:39:27.399Z,1003.0
2022-10-28T00:40:25.705Z,1003.0
2022-10-28T00:41:22.157Z,1003.0
2022-10-28T00:42:34.818Z,1003.0
2022-10-28T00:43:30.871Z,1002.9
2022-10-28T00:44:23.885Z,1002.9
2022-10-28T00:45:23.342Z,1002.9
2022-10-28T00:46:31.244Z,1003.0
2022-10-28T00:47:25.884Z,1003.0
2022-10-28T00:48:25.242Z,1003.0
2022-10-28T00:49:32.613Z,1003.0
2022-10-28T00:50:23.686Z,1003.0
2022-10-28T00:51:23.772Z,1003.0
2022-10-28T00:52:21.431Z,1003.0
2022-10-28T00:53:25.675Z,1003.0
2022-10-28T00:54:23.540Z,1003.0
2022-10-28T00:55:22.162Z,1003.0
2022-10-28T00:56:28.010Z,1003.1
2022-10-28T00:57:29.276Z,1003.0
2022-10-28T00:58:26.727Z,1003.0
2022-10-28T00:59:23.204Z,1003.0
2022-10-28T01:00:37.608Z,1003.0
2022-10-28T01:39:29.952Z,1002.9
2022-10-28T01:40:26.071Z,1002.9
2022-10-28T01:41:28.008Z,1002.8
2022-10-28T02:14:28.903Z,1002.8
2022-10-28T02:15:24.180Z,1002.8
2022-10-28T02:16:23.297Z,1002.8
2022-10-28T02:17:43.256Z,1002.7
2022-10-28T02:18:48.935Z,1002.7
2022-10-28T02:20:04.660Z,1002.7
2022-10-28T02:20:29.020Z,1002.6
2022-10-28T02:21:32.612Z,1002.6
2022-10-28T02:22:30.570Z,1002.5
2022-10-28T02:23:25.336Z,1002.5
2022-10-28T02:24:22.059Z,1002.5
2022-10-28T02:25:26.323Z,1002.5
2022-10-28T02:26:22.050Z,1002.5
2022-10-28T02:27:34.886Z,1002.5
2022-10-28T02:28:23.392Z,1002.5
2022-10-28T02:29:23.929Z,1002.5
2022-10-28T02:30:24.827Z,1002.5
2022-10-28T02:31:22.563Z,1002.5
2022-10-28T02:32:25.860Z,1002.5
2022-10-28T02:33:22.572Z,1002.5
2022-10-28T02:34:22.199Z,1002.5
2022-10-28T02:35:27.678Z,1002.5
2022-10-28T02:36:26.485Z,1002.6
2022-10-28T02:37:20.433Z,1002.6
2022-10-28T02:38:32.297Z,1002.6
2022-10-28T02:39:29.489Z,1002.6
2022-10-28T02:40:21.855Z,1002.5
2022-10-28T02:41:26.510Z,1002.5
2022-10-28T02:42:28.386Z,1002.5
2022-10-28T02:43:25.544Z,1002.5
2022-10-28T02:44:19.748Z,1002.5
2022-10-28T02:45:30.277Z,1002.5
2022-10-28T02:46:25.060Z,1002.5
2022-10-28T02:47:21.941Z,1002.4
2022-10-28T02:48:22.090Z,1002.4
2022-10-28T02:49:25.302Z,1002.4
2022-10-28T02:50:26.694Z,1002.4
2022-10-28T02:51:23.802Z,1002.3
2022-10-28T02:52:30.136Z,1002.3
2022-10-28T02:53:31.597Z,1002.3
2022-10-28T02:54:24.413Z,1002.3
2022-10-28T02:55:37.279Z,1002.3
2022-10-28T02:56:28.201Z,1002.4
2022-10-28T02:57:19.943Z,1002.3
2022-10-28T02:58:20.369Z,1002.3
2022-10-28T02:59:31.397Z,1002.3
2022-10-28T03:00:29.880Z,1002.3
2022-10-28T03:01:25.325Z,1002.3
2022-10-28T03:02:23.193Z,1002.3
2022-10-28T03:03:29.722Z,1002.3
2022-10-28T03:04:26.526Z,1002.3
2022-10-28T03:05:20.425Z,1002.4
2022-10-28T03:06:31.754Z,1002.4
2022-10-28T03:07:27.434Z,1002.4
2022-10-28T03:08:23.051Z,1002.4
2022-10-28T03:09:26.809Z,1002.4
2022-10-28T03:10:30.973Z,1002.4
2022-10-28T03:11:29.335Z,1002.4
2022-10-28T03:12:24.266Z,1002.5
2022-10-28T03:13:33.922Z,1002.5
2022-10-28T03:14:27.972Z,1002.6
2022-10-28T03:15:24.529Z,1002.6
2022-10-28T03:16:21.524Z,1002.7
2022-10-28T03:17:29.372Z,1002.7
2022-10-28T03:18:26.266Z,1002.7
2022-10-28T03:19:23.473Z,1002.6
2022-10-28T03:20:36.064Z,1002.6
2022-10-28T03:21:29.864Z,1002.6
2022-10-28T03:22:26.409Z,1002.6
2022-10-28T03:23:33.395Z,1002.6
2022-10-28T03:24:29.590Z,1002.7
2022-10-28T03:25:25.286Z,1002.7
2022-10-28T03:26:24.072Z,1002.6
2022-10-28T03:27:46.707Z,1002.6
2022-10-28T03:28:27.412Z,1002.6
2022-10-28T03:29:22.049Z,1002.6
2022-10-28T03:30:34.783Z,1002.6
2022-10-28T03:31:32.547Z,1002.6
2022-10-28T03:32:24.824Z,1002.6
2022-10-28T03:33:25.728Z,1002.5
2022-10-28T03:34:28.908Z,1002.5
2022-10-28T03:35:27.739Z,1002.5
2022-10-28T03:36:22.170Z,1002.4
2022-10-28T03:37:34.440Z,1002.4
2022-10-28T03:38:28.423Z,1002.4
2022-10-28T03:39:24.108Z,1002.4
2022-10-28T03:40:26.899Z,1002.4
2022-10-28T03:41:33.743Z,1002.4
2022-10-28T03:42:27.865Z,1002.4
2022-10-28T03:43:22.016Z,1002.4
2022-10-28T03:44:20.240Z,1002.3
2022-10-28T03:45:30.914Z,1002.3
2022-10-28T03:46:23.890Z,1002.3
2022-10-28T03:47:23.414Z,1002.3
2022-10-28T03:48:33.103Z,1002.3
2022-10-28T03:49:27.312Z,1002.3
2022-10-28T03:50:26.163Z,1002.3
2022-10-28T03:51:23.311Z,1002.3
2022-10-28T03:52:28.208Z,1002.3
2022-10-28T03:53:29.051Z,1002.3
2022-10-28T03:54:19.924Z,1002.4
2022-10-28T03:55:23.562Z,1002.4
2022-10-28T03:56:26.212Z,1002.4
2022-10-28T03:57:26.375Z,1002.4
2022-10-28T03:58:29.985Z,1002.4
2022-10-28T03:59:30.770Z,1002.4
2022-10-28T04:00:27.002Z,1002.4
2022-10-28T04:01:22.835Z,1002.4
2022-10-28T04:02:24.146Z,1002.4
2022-10-28T04:03:30.702Z,1002.4
2022-10-28T04:04:23.527Z,1002.4
2022-10-28T04:05:22.702Z,1002.4
2022-10-28T04:06:29.978Z,1002.4
2022-10-28T04:07:28.802Z,1002.4
2022-10-28T04:08:20.352Z,1002.4
2022-10-28T04:09:24.532Z,1002.5
2022-10-28T04:10:28.909Z,1002.5
2022-10-28T04:11:24.884Z,1002.5
2022-10-28T04:12:25.206Z,1002.5
2022-10-28T04:13:28.929Z,1002.5
2022-10-28T04:14:24.202Z,1002.5
2022-10-28T04:15:24.097Z,1002.5
2022-10-28T04:16:30.038Z,1002.6
2022-10-28T04:17:27.698Z,1002.6
2022-10-28T04:18:27.075Z,1002.5
2022-10-28T04:19:31.947Z,1002.6
2022-10-28T04:20:22.773Z,1002.6
2022-10-28T04:21:25.689Z,1002.5
2022-10-28T04:22:21.623Z,1002.5
2022-10-28T04:23:32.321Z,1002.5
2022-10-28T04:24:27.776Z,1002.5
2022-10-28T04:25:26.364Z,1002.5
2022-10-28T04:26:34.300Z,1002.5
2022-10-28T04:27:27.995Z,1002.5
2022-10-28T04:28:25.450Z,1002.6
2022-10-28T04:29:21.218Z,1002.6
2022-10-28T04:30:30.326Z,1002.6
2022-10-28T04:31:22.180Z,1002.6
2022-10-28T04:32:23.662Z,1002.6
2022-10-28T04:33:23.794Z,1002.6
2022-10-28T04:34:30.502Z,1002.7
2022-10-28T04:35:26.099Z,1002.7
2022-10-28T04:36:21.311Z,1002.7
2022-10-28T04:37:31.112Z,1002.7
2022-10-28T04:38:26.287Z,1002.8
2022-10-28T04:39:23.912Z,1002.8
2022-10-28T04:40:26.103Z,1002.8
2022-10-28T04:41:27.807Z,1002.8
2022-10-28T04:42:23.923Z,1002.8
2022-10-28T04:43:20.113Z,1002.9
2022-10-28T04:44:33.055Z,1002.9
2022-10-28T04:45:26.463Z,1002.9
2022-10-28T04:46:28.139Z,1002.9
2022-10-28T04:47:34.512Z,1002.8
2022-10-28T04:48:27.152Z,1002.7
2022-10-28T04:49:41.453Z,1002.6
2022-10-28T04:50:19.942Z,1002.5
2022-10-28T04:51:30.215Z,1002.5
2022-10-28T04:52:31.397Z,1002.4
2022-10-28T04:53:22.057Z,1002.4
2022-10-28T04:54:34.417Z,1002.4
2022-10-28T04:55:31.983Z,1002.4
2022-10-28T04:56:20.219Z,1002.4
2022-10-28T04:57:30.922Z,1002.4
2022-10-28T04:58:23.535Z,1002.4
2022-10-28T04:59:27.401Z,1002.4
2022-10-28T05:00:21.929Z,1002.4
2022-10-28T05:01:36.573Z,1002.5
2022-10-28T05:02:30.425Z,1002.5
2022-10-28T05:03:27.568Z,1002.5
2022-10-28T05:04:22.585Z,1002.6
2022-10-28T05:05:25.422Z,1002.6
2022-10-28T05:06:27.232Z,1002.6
2022-10-28T05:07:23.743Z,1002.5
2022-10-28T05:08:35.527Z,1002.5
2022-10-28T05:09:32.028Z,1002.5
2022-10-28T05:10:27.749Z,1002.6
2022-10-28T05:11:24.564Z,1002.6
2022-10-28T05:12:30.484Z,1002.5
2022-10-28T05:13:23.926Z,1002.6
2022-10-28T05:14:37.554Z,1002.6
2022-10-28T05:15:32.465Z,1002.6
2022-10-28T05:16:29.993Z,1002.7
2022-10-28T05:17:24.367Z,1002.6
2022-10-28T05:18:21.988Z,1002.6
2022-10-28T05:19:30.499Z,1002.5
2022-10-28T05:20:28.679Z,1002.5
2022-10-28T05:21:22.940Z,1002.4
2022-10-28T05:22:33.847Z,1002.4
2022-10-28T05:23:30.868Z,1002.4
2022-10-28T05:24:26.415Z,1002.4
2022-10-28T05:25:20.190Z,1002.4
2022-10-28T05:26:23.548Z,1002.4
2022-10-28T05:27:27.084Z,1002.4
2022-10-28T05:28:23.509Z,1002.4
2022-10-28T05:29:33.500Z,1002.4
2022-10-28T05:30:28.032Z,1002.4
2022-10-28T05:31:42.358Z,1002.4
2022-10-28T05:32:25.139Z,1002.4
2022-10-28T05:33:27.164Z,1002.4
2022-10-28T05:34:23.039Z,1002.5
2022-10-28T05:35:22.784Z,1002.5
2022-10-28T05:36:21.980Z,1002.5
2022-10-28T05:37:30.567Z,1002.5
2022-10-28T05:38:25.253Z,1002.5
2022-10-28T05:39:22.704Z,1002.5
2022-10-28T05:40:32.731Z,1002.5
2022-10-28T05:41:28.291Z,1002.5
2022-10-28T05:42:23.966Z,1002.5
2022-10-28T05:43:29.917Z,1002.5
2022-10-28T05:44:28.038Z,1002.5
2022-10-28T05:45:34.909Z,1002.5
2022-10-28T05:46:20.258Z,1002.5
2022-10-28T05:47:20.838Z,1002.4
2022-10-28T05:48:31.761Z,1002.4
2022-10-28T05:49:23.638Z,1002.4
2022-10-28T05:50:31.515Z,1002.4
2022-10-28T05:51:21.374Z,1002.4
2022-10-28T05:52:27.978Z,1002.4
2022-10-28T05:53:22.070Z,1002.4
2022-10-28T05:54:24.239Z,1002.4
2022-10-28T05:55:25.898Z,1002.4
2022-10-28T05:56:23.140Z,1002.4
2022-10-28T05:57:33.142Z,1002.4
2022-10-28T05:58:25.610Z,1002.4
2022-10-28T05:59:24.159Z,1002.4
2022-10-28T06:00:20.787Z,1002.4
2022-10-28T06:01:27.303Z,1002.4
2022-10-28T06:02:26.670Z,1002.4
2022-10-28T06:03:28.637Z,1002.4
2022-10-28T06:04:23.176Z,1002.4
2022-10-28T06:05:22.401Z,1002.5
2022-10-28T06:06:28.196Z,1002.5
2022-10-28T06:07:24.528Z,1002.5
2022-10-28T06:08:33.237Z,1002.5
2022-10-28T06:09:34.907Z,1002.5
2022-10-28T06:10:24.203Z,1002.5
2022-10-28T06:11:25.349Z,1002.5
2022-10-28T06:12:21.423Z,1002.5
2022-10-28T06:13:26.103Z,1002.5
2022-10-28T06:14:18.495Z,1002.5
2022-10-28T06:15:29.787Z,1002.5
2022-10-28T06:16:30.551Z,1002.6
2022-10-28T06:17:23.302Z,1002.6
2022-10-28T06:18:33.123Z,1002.6
2022-10-28T06:19:31.042Z,1002.6
2022-10-28T06:20:28.082Z,1002.6
2022-10-28T06:21:21.629Z,1002.6
2022-10-28T06:22:30.200Z,1002.6
2022-10-28T06:23:21.167Z,1002.6
2022-10-28T06:24:25.163Z,1002.6
2022-10-28T06:25:33.655Z,1002.7
2022-10-28T06:26:34.026Z,1002.7
2022-10-28T06:27:23.622Z,1002.7
2022-10-28T06:28:20.927Z,1002.7
2022-10-28T06:29:22.369Z,1002.7
2022-10-28T06:30:24.888Z,1002.7
2022-10-28T06:31:22.384Z,1002.7
2022-10-28T06:32:30.768Z,1002.7
2022-10-28T06:33:30.247Z,1002.7
2022-10-28T06:34:19.370Z,1002.7
2022-10-28T06:35:22.132Z,1002.7
2022-10-28T06:36:24.734Z,1002.7
2022-10-28T06:37:27.403Z,1002.8
2022-10-28T06:38:23.900Z,1002.8
2022-10-28T06:39:31.946Z,1002.8
2022-10-28T06:40:26.985Z,1002.8
2022-10-28T06:41:23.909Z,1002.8
2022-10-28T06:42:20.802Z,1002.8
2022-10-28T06:43:28.588Z,1002.8
2022-10-28T06:44:26.751Z,1002.9
2022-10-28T06:45:20.639Z,1002.9
2022-10-28T06:46:30.944Z,1002.9
2022-10-28T06:47:32.544Z,1003.0
2022-10-28T06:48:27.787Z,1003.0
2022-10-28T06:49:22.311Z,1003.0
2022-10-28T06:50:24.281Z,1003.1
2022-10-28T06:51:28.705Z,1003.1
2022-10-28T06:52:22.686Z,1003.1
2022-10-28T06:53:36.371Z,1003.2
2022-10-28T06:54:30.869Z,1003.2
2022-10-28T06:55:21.186Z,1003.2
2022-10-28T06:56:20.158Z,1003.2
2022-10-28T06:57:26.900Z,1003.3
2022-10-28T06:58:26.121Z,1003.3
2022-10-28T06:59:23.747Z,1003.3
2022-10-28T07:00:48.243Z,1003.3
2022-10-28T07:01:30.444Z,1003.3
2022-10-28T07:02:26.758Z,1003.3
2022-10-28T07:03:23.563Z,1003.3
2022-10-28T07:04:36.095Z,1003.3
2022-10-28T07:05:24.189Z,1003.3
2022-10-28T07:06:22.126Z,1003.4
2022-10-28T07:07:35.406Z,1003.4
2022-10-28T07:08:28.393Z,1003.4
2022-10-28T07:09:26.325Z,1003.4
2022-10-28T07:10:23.244Z,1003.4
2022-10-28T07:11:32.937Z,1003.4
2022-10-28T07:12:28.111Z,1003.4
2022-10-28T07:13:23.901Z,1003.3
2022-10-28T07:14:25.405Z,1003.3
2022-10-28T07:15:29.218Z,1003.3
2022-10-28T07:16:27.458Z,1003.3
2022-10-28T07:17:20.937Z,1003.3
2022-10-28T07:18:30.221Z,1003.3
2022-10-28T07:19:30.207Z,1003.2
2022-10-28T07:20:36.361Z,1003.2
2022-10-28T07:21:21.861Z,1003.2
2022-10-28T07:22:25.487Z,1003.2
2022-10-28T07:23:19.660Z,1003.2
2022-10-28T07:24:21.812Z,1003.2
2022-10-28T07:25:32.279Z,1003.2
2022-10-28T07:26:27.827Z,1003.2
2022-10-28T07:27:23.720Z,1003.2
2022-10-28T07:28:23.196Z,1003.1
2022-10-28T07:29:28.705Z,1003.1
2022-10-28T07:30:24.383Z,1003.1
2022-10-28T07:31:20.432Z,1003.1
2022-10-28T07:32:31.886Z,1003.1
2022-10-28T07:33:26.300Z,1003.1
2022-10-28T07:34:26.917Z,1003.1
2022-10-28T07:35:25.632Z,1003.1
2022-10-28T07:36:27.735Z,1003.1
2022-10-28T07:37:23.623Z,1003.1
2022-10-28T07:38:22.293Z,1003.1
2022-10-28T07:39:21.465Z,1003.1
2022-10-28T07:40:25.057Z,1003.1
2022-10-28T07:41:22.852Z,1003.1
2022-10-28T07:42:28.416Z,1003.2
2022-10-28T07:43:20.770Z,1003.2
2022-10-28T07:44:25.547Z,1003.2
2022-10-28T07:45:21.217Z,1003.2
2022-10-28T07:46:23.893Z,1003.2
2022-10-28T07:47:26.222Z,1003.2
2022-10-28T07:48:24.268Z,1003.2
2022-10-28T07:49:33.970Z,1003.2
2022-10-28T07:50:25.809Z,1003.2
2022-10-28T07:51:24.212Z,1003.2
2022-10-28T07:52:22.401Z,1003.2
2022-10-28T07:53:28.687Z,1003.2
2022-10-28T07:54:26.308Z,1003.2
2022-10-28T07:55:23.486Z,1003.2
2022-10-28T07:56:37.919Z,1003.3
2022-10-28T07:57:24.044Z,1003.3
2022-10-28T07:58:24.092Z,1003.3
2022-10-28T07:59:26.629Z,1003.3
2022-10-28T08:00:30.535Z,1003.4
2022-10-28T08:01:26.309Z,1003.4
2022-10-28T08:02:22.092Z,1003.4
2022-10-28T08:03:38.027Z,1003.4
2022-10-28T08:04:26.010Z,1003.4
2022-10-28T08:05:26.260Z,1003.4
2022-10-28T08:06:21.899Z,1003.4
2022-10-28T08:07:23.136Z,1003.4
2022-10-28T08:08:22.977Z,1003.5
2022-10-28T08:09:25.261Z,1003.4
2022-10-28T08:10:34.071Z,1003.5
2022-10-28T08:11:28.461Z,1003.5
2022-10-28T08:12:27.621Z,1003.4
2022-10-28T08:13:23.134Z,1003.4
2022-10-28T08:14:28.913Z,1003.4
2022-10-28T08:15:25.342Z,1003.4
2022-10-28T08:16:23.647Z,1003.5
2022-10-28T08:17:35.008Z,1003.5
2022-10-28T08:18:30.483Z,1003.5
2022-10-28T08:19:24.790Z,1003.5
2022-10-28T08:20:20.582Z,1003.5
2022-10-28T08:21:20.464Z,1003.5
2022-10-28T08:22:29.543Z,1003.5
2022-10-28T08:23:25.071Z,1003.5
2022-10-28T08:24:32.442Z,1003.5
2022-10-28T08:25:31.531Z,1003.5
2022-10-28T08:26:20.298Z,1003.4
2022-10-28T08:27:21.870Z,1003.4
2022-10-28T08:28:26.695Z,1003.4
2022-10-28T08:29:30.161Z,1003.5
2022-10-28T08:30:23.983Z,1003.5
2022-10-28T08:31:29.472Z,1003.5
2022-10-28T08:32:28.519Z,1003.5
2022-10-28T08:33:28.468Z,1003.5
2022-10-28T08:34:21.827Z,1003.6
2022-10-28T08:35:31.759Z,1003.6
2022-10-28T08:36:22.324Z,1003.6
2022-10-28T08:37:30.069Z,1003.6
2022-10-28T08:38:36.490Z,1003.6
2022-10-28T08:39:31.026Z,1003.6
2022-10-28T08:40:27.101Z,1003.6
2022-10-28T08:41:20.689Z,1003.6
2022-10-28T08:42:27.017Z,1003.6
2022-10-28T08:43:40.354Z,1003.6
2022-10-28T08:44:26.776Z,1003.6
2022-10-28T08:45:21.756Z,1003.6
2022-10-28T08:46:31.360Z,1003.6
2022-10-28T08:47:30.730Z,1003.6
2022-10-28T08:48:20.686Z,1003.6
2022-10-28T08:49:31.340Z,1003.7
2022-10-28T08:50:27.626Z,1003.7
2022-10-28T08:51:24.604Z,1003.7
2022-10-28T08:52:26.361Z,1003.7
2022-10-28T08:53:26.389Z,1003.7
2022-10-28T08:54:36.671Z,1003.7
2022-10-28T08:55:20.306Z,1003.6
2022-10-28T08:56:35.316Z,1003.6
2022-10-28T08:57:26.305Z,1003.6
2022-10-28T08:58:24.547Z,1003.6
2022-10-28T08:59:21.967Z,1003.6
2022-10-28T09:00:26.621Z,1003.6
2022-10-28T09:01:24.416Z,1003.6
2022-10-28T09:02:22.671Z,1003.5
2022-10-28T09:03:30.118Z,1003.5
2022-10-28T09:04:26.705Z,1003.5
2022-10-28T09:05:22.641Z,1003.5
2022-10-28T09:06:24.216Z,1003.5
2022-10-28T09:07:28.578Z,1003.5
2022-10-28T09:08:21.247Z,1003.4
2022-10-28T09:09:20.156Z,1003.4
2022-10-28T09:10:26.137Z,1003.5
2022-10-28T09:11:30.500Z,1003.5
2022-10-28T09:12:23.237Z,1003.5
2022-10-28T09:13:21.692Z,1003.5
2022-10-28T09:14:22.865Z,1003.5
2022-10-28T09:15:24.976Z,1003.5
2022-10-28T09:16:23.424Z,1003.5
2022-10-28T09:17:30.453Z,1003.5
2022-10-28T09:18:27.669Z,1003.5
2022-10-28T09:19:22.588Z,1003.5
2022-10-28T09:20:26.463Z,1003.5
2022-10-28T09:21:20.608Z,1003.5
2022-10-28T09:22:24.785Z,1003.5
2022-10-28T09:23:21.126Z,1003.5
2022-10-28T09:24:30.572Z,1003.5
2022-10-28T09:25:26.511Z,1003.5
2022-10-28T09:26:22.094Z,1003.4
2022-10-28T09:27:26.600Z,1003.4
2022-10-28T09:28:29.551Z,1003.4
2022-10-28T09:29:24.791Z,1003.4
2022-10-28T09:30:24.695Z,1003.4
2022-10-28T09:31:24.631Z,1003.3
2022-10-28T09:32:28.950Z,1003.3
2022-10-28T09:33:22.132Z,1003.3
2022-10-28T09:34:32.307Z,1003.3
2022-10-28T09:35:28.429Z,1003.3
2022-10-28T09:36:27.207Z,1003.3
2022-10-28T09:37:23.989Z,1003.3
2022-10-28T09:38:28.088Z,1003.3
2022-10-28T09:39:27.995Z,1003.3
2022-10-28T09:40:22.663Z,1003.4
2022-10-28T09:41:32.348Z,1003.4
2022-10-28T09:42:22.536Z,1003.5
2022-10-28T09:43:27.555Z,1003.5
2022-10-28T09:44:22.097Z,1003.5
2022-10-28T09:45:30.403Z,1003.6
2022-10-28T09:46:26.427Z,1003.6
2022-10-28T09:47:24.799Z,1003.6
2022-10-28T09:48:35.350Z,1003.6
2022-10-28T09:49:19.313Z,1003.7
2022-10-28T09:50:30.943Z,1003.7
2022-10-28T09:51:20.372Z,1003.6
2022-10-28T09:52:21.260Z,1003.6
2022-10-28T09:53:23.825Z,1003.6
2022-10-28T09:54:24.294Z,1003.6
2022-10-28T09:55:33.265Z,1003.6
2022-10-28T09:56:33.219Z,1003.6
2022-10-28T09:57:25.176Z,1003.6
2022-10-28T09:58:22.203Z,1003.6
2022-10-28T09:59:25.514Z,1003.6
2022-10-28T10:00:22.325Z,1003.6
2022-10-28T10:01:22.507Z,1003.6
2022-10-28T10:02:32.341Z,1003.6
2022-10-28T10:03:30.178Z,1003.7
2022-10-28T10:04:25.431Z,1003.7
2022-10-28T10:05:22.476Z,1003.7
2022-10-28T10:06:21.721Z,1003.7
2022-10-28T10:07:26.881Z,1003.7
2022-10-28T10:08:23.926Z,1003.8
2022-10-28T10:09:32.670Z,1003.8
2022-10-28T10:10:29.620Z,1003.8
2022-10-28T10:11:26.545Z,1003.8
2022-10-28T10:12:20.452Z,1003.8
2022-10-28T10:13:32.784Z,1003.8
2022-10-28T10:14:29.498Z,1003.8
2022-10-28T10:15:22.274Z,1003.8
2022-10-28T10:16:21.064Z,1003.9
2022-10-28T10:17:28.836Z,1003.9
2022-10-28T10:18:27.585Z,1003.9
2022-10-28T10:19:22.898Z,1003.9
2022-10-28T10:20:32.138Z,1003.9
2022-10-28T10:21:27.440Z,1003.9
2022-10-28T10:22:29.130Z,1003.9
2022-10-28T10:23:26.907Z,1003.8
2022-10-28T10:24:32.103Z,1003.9
2022-10-28T10:25:24.668Z,1003.9
2022-10-28T10:26:21.682Z,1003.9
2022-10-28T10:27:33.714Z,1004.0
2022-10-28T10:28:28.858Z,1004.0
2022-10-28T10:29:22.661Z,1003.9
2022-10-28T10:30:21.224Z,1003.9
2022-10-28T10:31:23.771Z,1003.9
2022-10-28T10:32:24.335Z,1003.9
2022-10-28T10:33:21.793Z,1003.9
2022-10-28T10:34:22.062Z,1003.9
2022-10-28T10:35:29.833Z,1003.9
2022-10-28T10:36:22.559Z,1003.8
2022-10-28T10:37:26.643Z,1003.8
2022-10-28T10:38:30.873Z,1003.7
2022-10-28T10:39:24.563Z,1003.7
2022-10-28T10:40:20.979Z,1003.7
2022-10-28T10:41:34.826Z,1003.7
2022-10-28T10:42:26.493Z,1003.7
2022-10-28T10:43:28.785Z,1003.7
2022-10-28T10:44:30.303Z,1003.7
2022-10-28T10:45:22.279Z,1003.6
2022-10-28T10:46:26.148Z,1003.6
2022-10-28T10:47:20.592Z,1003.6
2022-10-28T10:48:30.438Z,1003.6
2022-10-28T10:49:27.898Z,1003.6
2022-10-28T10:50:24.419Z,1003.6
2022-10-28T10:51:22.421Z,1003.6
2022-10-28T10:52:30.396Z,1003.7
2022-10-28T10:53:29.023Z,1003.6
2022-10-28T10:54:21.997Z,1003.6
2022-10-28T10:55:32.173Z,1003.7
2022-10-28T10:56:26.983Z,1003.7
2022-10-28T10:57:22.879Z,1003.7
2022-10-28T10:58:32.385Z,1003.7
2022-10-28T10:59:30.499Z,1003.7
2022-10-28T11:00:24.382Z,1003.7
2022-10-28T11:01:20.690Z,1003.7
2022-10-28T11:02:21.811Z,1003.7
2022-10-28T11:03:26.835Z,1003.7
2022-10-28T11:04:23.644Z,1003.7
2022-10-28T11:05:24.997Z,1003.7
2022-10-28T11:06:29.371Z,1003.7
2022-10-28T11:07:25.709Z,1003.7
2022-10-28T11:08:21.490Z,1003.7
2022-10-28T11:09:23.119Z,1003.6
2022-10-28T11:10:26.543Z,1003.6
2022-10-28T11:11:27.049Z,1003.6
2022-10-28T11:12:28.215Z,1003.6
2022-10-28T11:13:28.147Z,1003.5
2022-10-28T11:14:25.257Z,1003.5
2022-10-28T11:15:21.564Z,1003.5
2022-10-28T11:16:19.665Z,1003.4
2022-10-28T11:17:27.028Z,1003.4
2022-10-28T11:18:26.252Z,1003.4
2022-10-28T11:19:23.230Z,1003.4
2022-10-28T11:20:30.107Z,1003.4
2022-10-28T11:21:27.419Z,1003.4
2022-10-28T11:22:25.220Z,1003.4
2022-10-28T11:23:23.296Z,1003.4
2022-10-28T11:24:25.478Z,1003.4
2022-10-28T11:25:22.387Z,1003.4
2022-10-28T11:26:32.437Z,1003.4
2022-10-28T11:27:31.201Z,1003.4
2022-10-28T11:28:25.768Z,1003.4
2022-10-28T11:29:23.828Z,1003.4
2022-10-28T11:30:25.475Z,1003.4
2022-10-28T11:31:26.205Z,1003.3
2022-10-28T11:32:22.637Z,1003.3
2022-10-28T11:33:34.349Z,1003.3
2022-10-28T11:34:22.373Z,1003.3
2022-10-28T11:35:27.252Z,1003.3
2022-10-28T11:36:21.326Z,1003.3
2022-10-28T11:37:28.399Z,1003.3
2022-10-28T11:38:23.536Z,1003.2
2022-10-28T11:39:24.997Z,1003.2
2022-10-28T11:40:32.395Z,1003.2
2022-10-28T11:41:23.671Z,1003.2
2022-10-28T11:42:25.269Z,1003.2
2022-10-28T11:43:20.198Z,1003.2
2022-10-28T11:44:34.724Z,1003.2
2022-10-28T11:45:28.853Z,1003.2
2022-10-28T11:46:23.602Z,1003.2
2022-10-28T11:47:23.693Z,1003.2
2022-10-28T11:48:28.463Z,1003.2
2022-10-28T11:49:24.904Z,1003.1
2022-10-28T11:50:22.047Z,1003.1
2022-10-28T11:51:34.214Z,1003.1
2022-10-28T11:52:24.155Z,1003.1
2022-10-28T11:53:27.469Z,1003.1
2022-10-28T11:54:23.911Z,1003.1
2022-10-28T11:55:30.203Z,1003.1
2022-10-28T11:56:26.280Z,1003.1
2022-10-28T11:57:21.092Z,1003.1
2022-10-28T11:58:30.410Z,1003.1
2022-10-28T11:59:29.206Z,1003.1
2022-10-28T12:00:26.405Z,1003.1
2022-10-28T12:01:22.857Z,1003.1
2022-10-28T12:02:21.417Z,1003.0
2022-10-28T12:03:22.000Z,1003.1
2022-10-28T12:04:22.177Z,1003.0
2022-10-28T12:05:30.689Z,1003.0
2022-10-28T12:06:29.440Z,1003.0
2022-10-28T12:07:23.036Z,1003.0
2022-10-28T12:08:26.682Z,1003.0
2022-10-28T12:09:27.159Z,1003.0
2022-10-28T12:10:27.445Z,1003.0
2022-10-28T12:11:25.018Z,1003.0
2022-10-28T12:12:38.390Z,1003.0
2022-10-28T12:13:29.564Z,1003.0
2022-10-28T12:14:22.447Z,1003.0
2022-10-28T12:15:32.897Z,1003.0
2022-10-28T12:16:26.805Z,1003.0
2022-10-28T12:17:25.329Z,1002.9
2022-10-28T12:18:20.865Z,1002.9
2022-10-28T12:19:36.976Z,1002.9
2022-10-28T12:20:26.570Z,1002.9
2022-10-28T12:21:24.619Z,1002.9
2022-10-28T12:22:34.351Z,1002.8
2022-10-28T12:23:29.419Z,1002.8
2022-10-28T12:24:22.073Z,1002.8
2022-10-28T12:25:23.550Z,1002.8
2022-10-28T12:26:30.178Z,1002.8
2022-10-28T12:27:28.823Z,1002.8
2022-10-28T12:28:23.412Z,1002.8
2022-10-28T12:29:33.702Z,1002.8
2022-10-28T12:30:29.294Z,1002.8
2022-10-28T12:31:33.077Z,1002.8
2022-10-28T12:32:27.152Z,1002.8
2022-10-28T12:33:32.600Z,1002.7
2022-10-28T12:34:29.129Z,1002.7
2022-10-28T12:35:37.275Z,1002.7
2022-10-28T12:36:38.140Z,1002.7
2022-10-28T12:37:31.717Z,1002.7
2022-10-28T12:38:30.352Z,1002.7
2022-10-28T12:39:20.835Z,1002.7
2022-10-28T12:40:24.270Z,1002.7
2022-10-28T12:41:28.261Z,1002.7
2022-10-28T12:42:24.785Z,1002.7
2022-10-28T12:43:32.538Z,1002.7
2022-10-28T12:44:33.008Z,1002.7
2022-10-28T12:45:27.537Z,1002.7
2022-10-28T12:46:21.371Z,1002.7
2022-10-28T12:47:24.329Z,1002.7
2022-10-28T12:48:27.548Z,1002.6
2022-10-28T12:49:23.112Z,1002.6
2022-10-28T12:50:22.214Z,1002.6
2022-10-28T12:51:29.440Z,1002.6
2022-10-28T12:52:26.461Z,1002.6
2022-10-28T12:53:21.347Z,1002.5
2022-10-28T12:54:22.690Z,1002.5
2022-10-28T12:55:22.091Z,1002.5
2022-10-28T12:56:22.066Z,1002.4
2022-10-28T12:57:23.901Z,1002.4
2022-10-28T12:58:33.403Z,1002.4
2022-10-28T12:59:25.057Z,1002.4
2022-10-28T13:00:24.077Z,1002.3
2022-10-28T13:01:26.917Z,1002.3
2022-10-28T13:02:24.023Z,1002.3
2022-10-28T13:03:23.896Z,1002.3
2022-10-28T13:04:26.876Z,1002.3
2022-10-28T13:05:31.237Z,1002.3
2022-10-28T13:06:27.202Z,1002.3
2022-10-28T13:07:20.724Z,1002.3
2022-10-28T13:08:23.977Z,1002.3
2022-10-28T13:09:33.218Z,1002.3
2022-10-28T13:10:27.754Z,1002.3
2022-10-28T13:11:28.672Z,1002.2
2022-10-28T13:12:31.891Z,1002.2
2022-10-28T13:13:25.237Z,1002.2
2022-10-28T13:14:25.091Z,1002.2
2022-10-28T13:15:23.611Z,1002.3
2022-10-28T13:16:28.127Z,1002.3
2022-10-28T13:17:26.011Z,1002.3
2022-10-28T13:18:34.775Z,1002.3
2022-10-28T13:19:29.762Z,1002.3
2022-10-28T13:20:29.973Z,1002.4
2022-10-28T13:21:38.530Z,1002.4
2022-10-28T13:22:32.995Z,1002.3
2022-10-28T13:23:27.402Z,1002.3
2022-10-28T13:24:22.475Z,1002.3
2022-10-28T13:25:25.380Z,1002.3
2022-10-28T13:26:21.674Z,1002.3
2022-10-28T13:27:24.455Z,1002.3
2022-10-28T13:28:20.486Z,1002.3
2022-10-28T13:29:34.864Z,1002.4
2022-10-28T13:30:29.058Z,1002.4
2022-10-28T13:31:22.693Z,1002.4
2022-10-28T13:32:23.699Z,1002.4
2022-10-28T13:33:19.962Z,1002.4
2022-10-28T13:34:24.316Z,1002.4
2022-10-28T13:35:20.994Z,1002.3
2022-10-28T13:36:33.152Z,1002.3
2022-10-28T13:37:20.747Z,1002.3
2022-10-28T13:38:22.560Z,1002.3